Terminal Aerodrome Forecast
Issued by NWS Cleveland, OH

Home | Current Version | Previous Version | Graphics & Text | Print | Product List | Glossary Off
Versions: 1 2 3 4 5 6 7 8 9 10 11 12 13 14 15 16 17

000
FTUS41 KCLE 210200 AAA
TAFCAK
TAF AMD
KCAK 210201Z 2102/2124 21007KT 6SM -SHRA SCT025 OVC035
      TEMPO 2102/2104 3SM -SHRA BR BKN008 OVC015
     FM210500 28006KT 6SM BR VCSH OVC015
     FM210900 30008KT 5SM -DZ BKN008 OVC015
     FM211500 32012KT 4SM BR SCT008 OVC015=

USA.gov is the U.S. government's official web portal to all federal, state and local government web resources and services.